Time;durP1;ratioP1;P1;durP2;ratioP2;P2;SDS_P1;SDS_P2;PMS_P1;PMS_P2;Temp;Humidity;BMP_temperature;BMP_pressure;BME280_temperature;BME280_humidity;BME280_pressure;Samples;Min_cycle;Max_cycle;Signal;HPM_P1;HPM_P2
2022/06/12 00:00:30;;;;;;;;;;;;;;;17.52;65.97;101776.69;5061498;28;19932;-78
2022/06/12 00:02:55;;;;;;;;;;;;;;;17.47;65.81;101776.84;5061689;28;19932;-77
2022/06/12 00:05:23;;;;;;;;;;;;;;;17.46;65.55;101777.78;5067333;28;19925;-77
2022/06/12 00:07:48;;;;;;;;;;;;;;;17.44;65.76;101782.19;5064505;28;19921;-79
2022/06/12 00:10:14;;;;;;;;;;;;;;;17.42;65.99;101777.91;5064092;28;21269;-80
2022/06/12 00:12:40;;;;;;;;;;;;;;;17.32;66.59;101782.59;5064627;28;19924;-79
2022/06/12 00:15:06;;;;;;;;;;;;;;;17.44;65.85;101784.81;5065940;28;20475;-82
2022/06/12 00:17:31;;;;;;;;;;;;;;;17.37;66.02;101785.97;5066139;28;19925;-79
2022/06/12 00:19:57;;;;;;;;;;;;;;;17.35;65.83;101787.75;5072575;28;20401;-79
2022/06/12 00:22:22;;;;;;;;;;;;;;;17.26;66.65;101784.59;5068693;28;20373;-78
2022/06/12 00:24:47;;;;;;;;;;;;;;;17.30;66.18;101783.56;5066091;28;19935;-82
2022/06/12 00:27:14;;;;;;;;;;;;;;;17.34;65.89;101791.31;5069920;28;19932;-82
2022/06/12 00:29:39;;;;;;;;;;;;;;;17.28;65.76;101788.88;5069578;28;19958;-82
2022/06/12 00:32:09;;;;;;;;;;;;;;;17.31;65.54;101780.91;5064352;28;19986;-82
2022/06/12 00:34:38;;;;;;;;;;;;;;;17.27;65.35;101784.53;5072654;28;19978;-82
2022/06/12 00:37:03;;;;;;;;;;;;;;;17.13;66.18;101775.38;5066099;28;20344;-80
2022/06/12 00:39:31;;;;;;;;;;;;;;;17.11;65.64;101780.69;5069121;28;19968;-80
2022/06/12 00:41:57;;;;;;;;;;;;;;;17.18;65.72;101776.94;5064523;28;19947;-79
2022/06/12 00:44:25;;;;;;;;;;;;;;;17.21;65.47;101787.34;5067039;28;19974;-79
2022/06/12 00:46:52;;;;;;;;;;;;;;;17.17;65.59;101790.13;5066364;28;19921;-82
2022/06/12 00:49:29;;;;;;;;;;;;;;;17.13;65.77;101780.63;5069903;28;19931;-82
2022/06/12 00:52:13;;;;;;;;;;;;;;;17.13;65.61;101786.75;5063176;28;19928;-82
2022/06/12 00:54:41;;;;;;;;;;;;;;;17.08;65.83;101785.19;5062020;28;19950;-82
2022/06/12 00:57:07;;;;;;;;;;;;;;;17.15;65.73;101790.16;5066911;28;19932;-80
2022/06/12 00:59:47;;;;;;;;;;;;;;;17.18;65.29;101794.47;5066571;28;19917;-79
2022/06/12 01:02:14;;;;;;;;;;;;;;;17.11;65.50;101803.47;5069552;28;19920;-77
2022/06/12 01:07:35;;;;;;;;;;;;;;;17.09;65.41;101793.00;5069753;28;19928;-77
2022/06/12 01:10:03;;;;;;;;;;;;;;;17.05;65.72;101789.63;5065155;28;20003;-77
2022/06/12 01:12:31;;;;;;;;;;;;;;;17.03;65.97;101794.03;5068588;28;19925;-77
2022/06/12 01:15:01;;;;;;;;;;;;;;;17.01;66.03;101788.00;5066474;28;19928;-79
2022/06/12 01:17:27;;;;;;;;;;;;;;;16.95;66.23;101790.81;5066940;28;19932;-82
2022/06/12 01:19:58;;;;;;;;;;;;;;;16.97;66.40;101796.88;5062918;28;20318;-82
2022/06/12 01:22:29;;;;;;;;;;;;;;;16.86;66.59;101793.72;5076660;28;20406;-77
2022/06/12 01:24:55;;;;;;;;;;;;;;;16.90;66.60;101790.09;5064347;28;19936;-77
2022/06/12 01:27:38;;;;;;;;;;;;;;;16.88;67.06;101797.16;5068210;28;19924;-77
2022/06/12 01:30:09;;;;;;;;;;;;;;;16.83;67.56;101793.81;5066056;28;19921;-77
2022/06/12 01:32:42;;;;;;;;;;;;;;;16.79;67.89;101793.97;5065535;28;19925;-77
2022/06/12 01:35:26;;;;;;;;;;;;;;;16.71;68.30;101795.94;5065898;28;20399;-77
2022/06/12 01:37:58;;;;;;;;;;;;;;;16.73;67.06;101797.59;5066581;28;20096;-77
2022/06/12 01:40:23;;;;;;;;;;;;;;;16.74;67.44;101790.59;5064548;28;19924;-82
2022/06/12 01:42:54;;;;;;;;;;;;;;;16.67;68.01;101797.75;5064268;28;19928;-82
2022/06/12 01:45:25;;;;;;;;;;;;;;;16.65;67.99;101796.09;5062445;28;19924;-82
2022/06/12 01:47:53;;;;;;;;;;;;;;;16.70;66.73;101802.94;5068805;28;20003;-77
2022/06/12 01:50:21;;;;;;;;;;;;;;;16.65;67.45;101796.09;5064875;28;19920;-82
2022/06/12 01:52:56;;;;;;;;;;;;;;;16.70;66.53;101791.63;5064912;28;20077;-82
2022/06/12 01:55:24;;;;;;;;;;;;;;;16.65;66.19;101786.47;5065399;28;19924;-82
2022/06/12 01:57:52;;;;;;;;;;;;;;;16.65;66.13;101793.47;5065653;28;20405;-82
2022/06/12 02:00:22;;;;;;;;;;;;;;;16.65;65.46;101794.34;5064422;28;19928;-79
2022/06/12 02:02:57;;;;;;;;;;;;;;;16.69;65.00;101797.75;5069629;28;20375;-79
2022/06/12 02:05:26;;;;;;;;;;;;;;;16.68;65.50;101802.09;5066834;28;19948;-79
2022/06/12 02:07:54;;;;;;;;;;;;;;;16.64;66.11;101795.22;5063745;28;21734;-79
2022/06/12 02:10:19;;;;;;;;;;;;;;;16.61;66.34;101794.47;5065046;28;19920;-79
2022/06/12 02:15:37;;;;;;;;;;;;;;;16.47;67.16;101802.72;5063978;28;19952;-79
2022/06/12 02:18:05;;;;;;;;;;;;;;;16.41;67.20;101795.03;5064554;28;19928;-79
2022/06/12 02:20:36;;;;;;;;;;;;;;;16.36;67.18;101796.94;5062932;28;19912;-79
2022/06/12 02:23:06;;;;;;;;;;;;;;;16.38;66.73;101792.50;5063769;28;19928;-79
2022/06/12 02:25:33;;;;;;;;;;;;;;;16.41;66.20;101798.53;5065817;28;20268;-77
2022/06/12 02:28:03;;;;;;;;;;;;;;;16.41;66.95;101790.66;5063758;28;19924;-77
2022/06/12 02:30:33;;;;;;;;;;;;;;;16.33;67.23;101790.03;5066458;28;19920;-77
2022/06/12 02:33:01;;;;;;;;;;;;;;;16.26;67.69;101788.47;5065001;28;19924;-77
2022/06/12 02:35:39;;;;;;;;;;;;;;;16.28;67.94;101793.69;5063441;28;20391;-77
2022/06/12 02:38:13;;;;;;;;;;;;;;;16.24;67.84;101794.66;5067828;28;20465;-77
2022/06/12 02:40:43;;;;;;;;;;;;;;;16.20;67.88;101788.66;5064520;28;19931;-77
2022/06/12 02:43:15;;;;;;;;;;;;;;;16.24;67.86;101790.28;5067336;28;20360;-82
2022/06/12 02:45:40;;;;;;;;;;;;;;;16.19;67.99;101793.94;5065569;28;19994;-82
2022/06/12 02:48:06;;;;;;;;;;;;;;;16.23;67.67;101790.31;5066249;28;20637;-80
2022/06/12 02:50:33;;;;;;;;;;;;;;;16.21;67.79;101793.00;5060781;28;20422;-79
2022/06/12 02:53:01;;;;;;;;;;;;;;;16.19;67.75;101788.72;5065082;28;19924;-79
2022/06/12 02:55:39;;;;;;;;;;;;;;;16.13;68.03;101796.75;5063357;28;19931;-79
2022/06/12 02:58:07;;;;;;;;;;;;;;;16.10;67.98;101786.34;5063425;28;19920;-79
2022/06/12 03:00:35;;;;;;;;;;;;;;;16.10;67.97;101799.44;5064288;28;19947;-79
2022/06/12 03:03:18;;;;;;;;;;;;;;;16.10;68.25;101800.31;5061635;28;20306;-79
2022/06/12 03:05:48;;;;;;;;;;;;;;;16.07;67.99;101796.91;5063455;28;19947;-79
2022/06/12 03:08:15;;;;;;;;;;;;;;;16.00;68.60;101790.97;5064081;28;19924;-79
2022/06/12 03:10:49;;;;;;;;;;;;;;;16.06;68.22;101795.19;5063218;28;19978;-79
2022/06/12 03:13:15;;;;;;;;;;;;;;;15.95;68.17;101791.09;5061310;28;19931;-79
2022/06/12 03:15:40;;;;;;;;;;;;;;;16.04;67.93;101797.84;5061984;28;19925;-77
2022/06/12 03:18:09;;;;;;;;;;;;;;;16.04;68.08;101800.47;5063903;28;19928;-77
2022/06/12 03:20:54;;;;;;;;;;;;;;;16.03;67.44;101800.50;5063350;28;19942;-77
2022/06/12 03:23:31;;;;;;;;;;;;;;;16.02;67.32;101801.41;5063972;28;19977;-77
2022/06/12 03:25:57;;;;;;;;;;;;;;;16.09;67.00;101797.72;5065786;28;19928;-78
2022/06/12 03:28:22;;;;;;;;;;;;;;;16.03;67.70;101808.38;5058890;28;20006;-79
2022/06/12 03:30:59;;;;;;;;;;;;;;;16.00;67.92;101806.69;5062907;28;19929;-82
2022/06/12 03:33:31;;;;;;;;;;;;;;;15.93;67.92;101816.47;5061283;28;20280;-81
2022/06/12 03:36:11;;;;;;;;;;;;;;;15.90;68.23;101810.44;5061087;28;20279;-81
2022/06/12 03:38:47;;;;;;;;;;;;;;;15.89;68.15;101812.22;5063245;28;19927;-82
2022/06/12 03:41:18;;;;;;;;;;;;;;;15.87;68.48;101811.38;5064861;28;19924;-77
2022/06/12 03:43:47;;;;;;;;;;;;;;;15.88;68.66;101812.25;5063190;28;19924;-77
2022/06/12 03:46:24;;;;;;;;;;;;;;;15.87;68.47;101811.38;5063878;28;19925;-76
2022/06/12 03:49:05;;;;;;;;;;;;;;;15.86;68.72;101814.06;5060458;28;19955;-77
2022/06/12 03:51:39;;;;;;;;;;;;;;;15.76;68.98;101812.56;5069414;28;19924;-76
2022/06/12 03:54:14;;;;;;;;;;;;;;;15.86;68.60;101816.69;5061540;28;19924;-79
2022/06/12 03:59:39;;;;;;;;;;;;;;;15.82;68.82;101815.03;5057334;28;19931;-77
2022/06/12 04:02:06;;;;;;;;;;;;;;;15.86;68.38;101806.19;5068766;28;20308;-76
2022/06/12 04:04:33;;;;;;;;;;;;;;;15.92;68.38;101809.53;5065902;28;19989;-77
2022/06/12 04:07:01;;;;;;;;;;;;;;;15.95;68.44;101812.06;5061684;28;20413;-77
2022/06/12 04:09:29;;;;;;;;;;;;;;;15.95;67.88;101808.59;5063418;28;19972;-77
2022/06/12 04:11:57;;;;;;;;;;;;;;;15.87;68.47;101814.00;5070012;28;19916;-77
2022/06/12 04:14:26;;;;;;;;;;;;;;;15.95;68.53;101817.31;5065939;28;20449;-77
2022/06/12 04:16:54;;;;;;;;;;;;;;;16.04;67.72;101816.19;5065100;28;20486;-77
2022/06/12 04:19:21;;;;;;;;;;;;;;;15.95;68.41;101814.69;5068194;28;19943;-77
2022/06/12 04:22:00;;;;;;;;;;;;;;;15.88;68.03;101820.13;5066854;28;19920;-77
2022/06/12 04:24:34;;;;;;;;;;;;;;;15.93;68.11;101829.56;5063401;28;19924;-77
2022/06/12 04:27:12;;;;;;;;;;;;;;;15.80;67.36;101825.56;5064986;28;19956;-77
2022/06/12 04:29:39;;;;;;;;;;;;;;;15.87;67.26;101832.34;5067894;28;19938;-78
2022/06/12 04:32:06;;;;;;;;;;;;;;;15.82;67.55;101829.00;5068083;28;19947;-78
2022/06/12 04:34:35;;;;;;;;;;;;;;;15.98;66.89;101829.47;5063588;28;19939;-77
2022/06/12 04:37:10;;;;;;;;;;;;;;;16.03;67.11;101830.19;5063376;28;19946;-77
2022/06/12 04:39:36;;;;;;;;;;;;;;;16.07;66.55;101829.22;5063697;28;19947;-77
2022/06/12 04:42:02;;;;;;;;;;;;;;;15.97;67.62;101831.22;5063995;28;19958;-77
2022/06/12 04:44:28;;;;;;;;;;;;;;;16.06;67.00;101829.25;5063771;28;19921;-79
2022/06/12 04:46:54;;;;;;;;;;;;;;;16.08;66.90;101828.31;5063686;28;19920;-81
2022/06/12 04:49:22;;;;;;;;;;;;;;;15.97;66.74;101836.47;5068034;28;19977;-78
2022/06/12 04:51:48;;;;;;;;;;;;;;;16.12;66.32;101834.31;5063625;28;19995;-78
2022/06/12 04:54:13;;;;;;;;;;;;;;;15.90;66.99;101832.28;5064928;28;19924;-78
2022/06/12 04:56:39;;;;;;;;;;;;;;;16.07;66.44;101839.72;5063493;28;20339;-77
2022/06/12 04:59:05;;;;;;;;;;;;;;;16.11;66.06;101835.22;5064603;28;20054;-79
2022/06/12 05:01:32;;;;;;;;;;;;;;;16.10;66.69;101830.91;5066008;28;19920;-79
2022/06/12 05:03:58;;;;;;;;;;;;;;;16.04;66.24;101829.31;5058363;28;19929;-79
2022/06/12 05:06:23;;;;;;;;;;;;;;;16.08;66.04;101835.28;5066768;28;20310;-79
2022/06/12 05:08:49;;;;;;;;;;;;;;;16.01;65.79;101832.00;5064085;28;20295;-78
2022/06/12 05:11:15;;;;;;;;;;;;;;;15.84;66.91;101832.44;5069357;28;19917;-78
2022/06/12 05:13:40;;;;;;;;;;;;;;;16.08;66.67;101837.91;5066618;28;19924;-78
2022/06/12 05:16:06;;;;;;;;;;;;;;;16.10;66.34;101831.75;5066514;28;20012;-82
2022/06/12 05:18:32;;;;;;;;;;;;;;;16.11;65.71;101836.09;5068302;28;19956;-81
2022/06/12 05:20:57;;;;;;;;;;;;;;;16.12;66.09;101831.72;5066013;28;19975;-79
2022/06/12 05:23:22;;;;;;;;;;;;;;;16.18;65.30;101831.53;5065462;28;20366;-79
2022/06/12 05:25:48;;;;;;;;;;;;;;;16.10;66.12;101829.13;5065988;28;19928;-79
2022/06/12 05:28:14;;;;;;;;;;;;;;;16.07;66.43;101831.84;5065675;28;19932;-77
2022/06/12 05:30:40;;;;;;;;;;;;;;;16.19;65.58;101830.66;5065184;28;20365;-77
2022/06/12 05:33:06;;;;;;;;;;;;;;;16.20;65.01;101829.72;5061188;28;19939;-77
2022/06/12 05:35:32;;;;;;;;;;;;;;;16.11;65.46;101833.47;5066775;28;19928;-77
2022/06/12 05:38:00;;;;;;;;;;;;;;;16.06;65.49;101829.25;5064913;28;19928;-77
2022/06/12 05:40:27;;;;;;;;;;;;;;;16.13;65.98;101836.94;5067385;28;20044;-77
2022/06/12 05:42:55;;;;;;;;;;;;;;;16.04;65.95;101825.81;5065145;28;20740;-79
2022/06/12 05:45:22;;;;;;;;;;;;;;;16.16;65.41;101826.34;5068683;28;19932;-78
2022/06/12 05:47:49;;;;;;;;;;;;;;;16.24;65.71;101820.88;5069777;28;20493;-78
2022/06/12 05:50:14;;;;;;;;;;;;;;;16.27;64.60;101829.53;5069570;28;20001;-79
2022/06/12 05:52:40;;;;;;;;;;;;;;;16.24;64.63;101831.38;5064090;28;19968;-77
2022/06/12 05:55:05;;;;;;;;;;;;;;;16.29;64.55;101830.34;5062388;28;19932;-82
2022/06/12 05:57:31;;;;;;;;;;;;;;;16.32;64.24;101832.00;5061899;28;20391;-82
2022/06/12 05:59:58;;;;;;;;;;;;;;;16.36;64.15;101826.66;5062672;28;19936;-81
2022/06/12 06:02:23;;;;;;;;;;;;;;;16.30;64.04;101834.69;5057748;28;19916;-78
2022/06/12 06:04:48;;;;;;;;;;;;;;;16.35;64.55;101826.69;5064344;28;20058;-79
2022/06/12 06:07:14;;;;;;;;;;;;;;;16.29;63.95;101835.59;5059017;28;19977;-79
2022/06/12 06:09:39;;;;;;;;;;;;;;;16.22;63.72;101827.94;5070412;28;20009;-77
2022/06/12 06:12:05;;;;;;;;;;;;;;;16.28;63.43;101830.41;5063572;28;19917;-77
2022/06/12 06:14:30;;;;;;;;;;;;;;;16.38;63.37;101829.22;5069973;28;19932;-79
2022/06/12 06:16:55;;;;;;;;;;;;;;;16.42;63.26;101830.88;5064956;28;20444;-79
2022/06/12 06:19:21;;;;;;;;;;;;;;;16.35;63.54;101829.31;5072513;28;19916;-77
2022/06/12 06:21:46;;;;;;;;;;;;;;;16.45;63.33;101831.66;5067570;28;19933;-80
2022/06/12 06:24:12;;;;;;;;;;;;;;;16.43;62.73;101830.81;5068171;28;19924;-82
2022/06/12 06:26:37;;;;;;;;;;;;;;;16.37;62.47;101827.53;5065446;28;19917;-77
2022/06/12 06:29:03;;;;;;;;;;;;;;;16.38;61.87;101824.84;5069883;28;19977;-79
2022/06/12 06:31:28;;;;;;;;;;;;;;;16.39;63.25;101823.09;5063786;28;20610;-79
2022/06/12 06:33:56;;;;;;;;;;;;;;;16.25;62.02;101833.97;5061274;28;19928;-80
2022/06/12 06:36:24;;;;;;;;;;;;;;;16.39;61.04;101821.31;5072902;28;19923;-82
2022/06/12 06:38:51;;;;;;;;;;;;;;;16.38;60.82;101821.34;5067030;28;19916;-82
2022/06/12 06:41:16;;;;;;;;;;;;;;;16.47;60.98;101828.97;5073313;28;19923;-77
2022/06/12 06:46:29;;;;;;;;;;;;;;;16.51;60.20;101836.72;5071770;28;20430;-82
2022/06/12 06:48:55;;;;;;;;;;;;;;;16.52;60.62;101834.97;5069677;28;19921;-78
2022/06/12 06:51:20;;;;;;;;;;;;;;;16.52;60.62;101833.16;5062765;28;19949;-82
2022/06/12 06:53:46;;;;;;;;;;;;;;;16.36;61.06;101839.78;5066990;28;20643;-77
2022/06/12 06:56:11;;;;;;;;;;;;;;;16.52;60.85;101845.44;5070018;28;19921;-82
2022/06/12 06:58:36;;;;;;;;;;;;;;;16.56;61.36;101843.56;5066089;28;19927;-81
2022/06/12 07:01:02;;;;;;;;;;;;;;;16.50;62.13;101848.09;5055286;28;20337;-79
2022/06/12 07:03:28;;;;;;;;;;;;;;;16.56;60.47;101838.31;5073224;28;19924;-77
2022/06/12 07:05:54;;;;;;;;;;;;;;;16.56;60.58;101840.94;5074361;28;19979;-77
2022/06/12 07:08:21;;;;;;;;;;;;;;;16.60;60.78;101845.22;5072799;28;19916;-79
2022/06/12 07:10:46;;;;;;;;;;;;;;;16.64;60.69;101839.81;5068168;28;19920;-77
2022/06/12 07:13:12;;;;;;;;;;;;;;;16.67;60.76;101836.28;5064509;28;19927;-77
2022/06/12 07:15:38;;;;;;;;;;;;;;;16.62;60.43;101846.03;5064136;28;19924;-77
2022/06/12 07:18:04;;;;;;;;;;;;;;;16.68;59.65;101841.47;5065945;28;19928;-79
2022/06/12 07:20:31;;;;;;;;;;;;;;;16.67;58.28;101834.50;5063270;28;19921;-79
2022/06/12 07:22:56;;;;;;;;;;;;;;;16.67;58.94;101844.16;5061379;28;19928;-79
2022/06/12 07:25:22;;;;;;;;;;;;;;;16.74;58.79;101840.44;5069802;28;19966;-79
2022/06/12 07:27:48;;;;;;;;;;;;;;;16.62;58.51;101844.25;5060958;28;19979;-79
2022/06/12 07:30:15;;;;;;;;;;;;;;;16.73;57.84;101842.22;5063592;28;19928;-79
2022/06/12 07:32:40;;;;;;;;;;;;;;;16.69;56.33;101837.13;5067213;28;19939;-79
2022/06/12 07:35:06;;;;;;;;;;;;;;;16.72;56.85;101847.53;5065612;28;20410;-79
2022/06/12 07:37:34;;;;;;;;;;;;;;;16.74;56.29;101835.22;5067180;28;19925;-79
2022/06/12 07:40:00;;;;;;;;;;;;;;;16.73;54.80;101833.50;5059222;28;19956;-79
2022/06/12 07:42:26;;;;;;;;;;;;;;;16.78;53.56;101836.84;5066312;28;19924;-79
2022/06/12 07:44:54;;;;;;;;;;;;;;;16.74;53.90;101840.44;5065539;28;19923;-79
2022/06/12 07:47:22;;;;;;;;;;;;;;;16.78;54.43;101832.47;5049586;28;19924;-79
2022/06/12 07:49:47;;;;;;;;;;;;;;;16.78;53.49;101839.47;5048808;28;20344;-79
2022/06/12 07:52:13;;;;;;;;;;;;;;;16.79;52.71;101844.66;5047832;28;20371;-79
2022/06/12 07:54:39;;;;;;;;;;;;;;;16.84;53.39;101842.78;5048565;28;19978;-82
2022/06/12 07:57:05;;;;;;;;;;;;;;;16.84;53.11;101837.53;5063196;28;20023;-80
2022/06/12 07:59:31;;;;;;;;;;;;;;;16.82;53.30;101844.56;5067084;28;19923;-79
2022/06/12 08:01:56;;;;;;;;;;;;;;;16.84;52.93;101844.53;5063465;28;19924;-79
2022/06/12 08:04:22;;;;;;;;;;;;;;;16.85;53.12;101849.72;5062457;28;20414;-79
2022/06/12 08:06:48;;;;;;;;;;;;;;;16.87;52.74;101845.31;5073311;28;19950;-79
2022/06/12 08:09:13;;;;;;;;;;;;;;;16.91;52.46;101840.81;5068652;28;19921;-79
2022/06/12 08:11:39;;;;;;;;;;;;;;;16.92;53.22;101843.41;5050064;28;19970;-79
2022/06/12 08:14:05;;;;;;;;;;;;;;;16.95;53.34;101845.94;5055053;28;19999;-79
2022/06/12 08:16:31;;;;;;;;;;;;;;;16.98;53.10;101839.72;5062876;28;20383;-79
2022/06/12 08:18:56;;;;;;;;;;;;;;;16.98;53.31;101834.47;5062143;28;20011;-79
2022/06/12 08:21:21;;;;;;;;;;;;;;;16.98;52.97;101837.97;5062531;28;19955;-79
2022/06/12 08:23:48;;;;;;;;;;;;;;;16.98;53.26;101847.59;5061327;28;19916;-79
2022/06/12 08:26:19;;;;;;;;;;;;;;;16.99;53.14;101841.44;5070864;28;19916;-79
2022/06/12 08:28:49;;;;;;;;;;;;;;;17.02;53.42;101842.22;5073881;28;20434;-79
2022/06/12 08:31:21;;;;;;;;;;;;;;;17.03;53.36;101848.31;5064492;28;19983;-79
2022/06/12 08:33:48;;;;;;;;;;;;;;;17.02;53.08;101843.97;5066583;28;19935;-79
2022/06/12 08:36:14;;;;;;;;;;;;;;;17.02;53.65;101838.75;5059429;28;19929;-79
2022/06/12 08:38:40;;;;;;;;;;;;;;;17.01;53.94;101830.00;5075216;28;19923;-79
2022/06/12 08:41:22;;;;;;;;;;;;;;;17.06;54.19;101832.47;5070137;28;19954;-79
2022/06/12 08:43:57;;;;;;;;;;;;;;;17.08;54.08;101835.91;5072008;28;19927;-79
2022/06/12 08:46:35;;;;;;;;;;;;;;;17.04;53.22;101823.78;5071285;28;20605;-79
2022/06/12 08:49:11;;;;;;;;;;;;;;;17.13;53.21;101822.63;5072731;28;20287;-79
2022/06/12 08:51:39;;;;;;;;;;;;;;;17.16;53.33;101822.53;5065414;28;19977;-79
2022/06/12 08:54:09;;;;;;;;;;;;;;;17.14;52.91;101824.38;5072026;28;19920;-79
2022/06/12 08:56:47;;;;;;;;;;;;;;;17.13;52.94;101826.13;5071188;28;19927;-79
2022/06/12 08:59:15;;;;;;;;;;;;;;;17.16;52.41;101820.78;5072753;28;19920;-79
2022/06/12 09:01:43;;;;;;;;;;;;;;;17.20;51.75;101827.66;5077599;28;19920;-79
2022/06/12 09:04:11;;;;;;;;;;;;;;;17.16;51.81;101818.16;5066535;28;20333;-79
2022/06/12 09:06:55;;;;;;;;;;;;;;;17.14;52.84;101816.50;5073281;28;19920;-79
2022/06/12 09:09:20;;;;;;;;;;;;;;;17.15;53.34;101815.56;5069506;28;20015;-79
2022/06/12 09:11:49;;;;;;;;;;;;;;;17.27;52.55;101816.03;5082228;28;19999;-79
2022/06/12 09:14:33;;;;;;;;;;;;;;;17.23;52.38;101813.56;5070642;28;20401;-79
2022/06/12 09:16:58;;;;;;;;;;;;;;;17.23;52.85;101805.69;5087605;28;20023;-79
2022/06/12 09:19:24;;;;;;;;;;;;;;;17.24;53.12;101800.38;5073123;28;20015;-79
2022/06/12 09:21:55;;;;;;;;;;;;;;;17.29;52.64;101802.88;5074723;28;19916;-79
2022/06/12 09:24:27;;;;;;;;;;;;;;;17.31;53.56;101799.28;5069732;28;20494;-79
2022/06/12 09:27:03;;;;;;;;;;;;;;;17.31;51.85;101799.28;5072236;28;19931;-79
2022/06/12 09:29:31;;;;;;;;;;;;;;;17.28;51.84;101786.25;5069360;28;20678;-79
2022/06/12 09:32:15;;;;;;;;;;;;;;;17.31;52.64;101795.78;5073905;28;19931;-79
2022/06/12 09:34:50;;;;;;;;;;;;;;;17.30;52.47;101787.06;5070800;28;19924;-77
2022/06/12 09:40:05;;;;;;;;;;;;;;;17.38;52.33;101786.81;5075962;28;20029;-82
2022/06/12 09:42:41;;;;;;;;;;;;;;;17.40;51.75;101780.59;5074072;28;19960;-82
2022/06/12 09:45:13;;;;;;;;;;;;;;;17.37;51.96;101790.34;5063518;28;19920;-79
2022/06/12 09:47:38;;;;;;;;;;;;;;;17.42;49.17;101777.91;5055263;28;19913;-79
2022/06/12 09:50:03;;;;;;;;;;;;;;;17.39;48.30;101770.13;5069218;28;19947;-79
2022/06/12 09:52:41;;;;;;;;;;;;;;;17.49;47.46;101776.81;5066378;28;19921;-79
2022/06/12 09:55:14;;;;;;;;;;;;;;;17.52;48.14;101779.31;5067584;28;20022;-79
2022/06/12 09:57:39;;;;;;;;;;;;;;;17.50;47.07;101776.75;5051494;28;19927;-79
2022/06/12 10:00:10;;;;;;;;;;;;;;;17.47;44.88;101770.75;5070678;28;19924;-82
2022/06/12 10:02:35;;;;;;;;;;;;;;;17.54;43.85;101769.63;5064663;28;20306;-82
2022/06/12 10:05:04;;;;;;;;;;;;;;;17.67;44.10;101775.34;5074426;28;19939;-82
2022/06/12 10:07:35;;;;;;;;;;;;;;;17.57;44.85;101778.25;5069004;28;19917;-82
2022/06/12 10:10:03;;;;;;;;;;;;;;;17.57;44.29;101774.78;5066698;28;19928;-82
2022/06/12 10:12:31;;;;;;;;;;;;;;;17.50;44.22;101768.84;5061833;28;19928;-82
2022/06/12 10:14:59;;;;;;;;;;;;;;;17.71;43.80;101764.66;5069455;28;19931;-82
2022/06/12 10:17:32;;;;;;;;;;;;;;;17.69;43.75;101771.75;5068984;28;19917;-82
2022/06/12 10:20:03;;;;;;;;;;;;;;;17.64;43.84;101768.44;5083766;28;19924;-82
2022/06/12 10:22:33;;;;;;;;;;;;;;;17.74;43.36;101767.19;5064736;28;19916;-82
2022/06/12 10:25:00;;;;;;;;;;;;;;;17.67;42.09;101759.59;5069431;28;20077;-82
2022/06/12 10:27:25;;;;;;;;;;;;;;;17.67;43.00;101764.84;5066962;28;19920;-82
2022/06/12 10:30:00;;;;;;;;;;;;;;;17.71;41.95;101763.84;5079299;28;19924;-81
2022/06/12 10:32:40;;;;;;;;;;;;;;;17.74;42.07;101761.09;5073113;28;19916;-82
2022/06/12 10:35:15;;;;;;;;;;;;;;;17.83;42.71;101756.34;5069863;28;19936;-82
2022/06/12 10:37:40;;;;;;;;;;;;;;;17.93;42.27;101757.75;5076278;28;20498;-81
2022/06/12 10:40:16;;;;;;;;;;;;;;;17.83;43.39;101769.50;5055015;28;19920;-82
2022/06/12 10:43:02;;;;;;;;;;;;;;;17.78;45.08;101760.06;5073854;28;19924;-79
2022/06/12 10:45:28;;;;;;;;;;;;;;;17.83;42.57;101758.16;5071205;28;19966;-77
2022/06/12 10:47:55;;;;;;;;;;;;;;;17.79;42.00;101749.50;5074266;28;20350;-77
2022/06/12 10:50:20;;;;;;;;;;;;;;;17.80;41.92;101753.84;5084513;28;19915;-77
2022/06/12 10:53:04;;;;;;;;;;;;;;;17.88;42.67;101754.44;5068580;28;19969;-77
2022/06/12 10:55:49;;;;;;;;;;;;;;;17.72;42.39;101748.00;5058926;28;19964;-77
2022/06/12 10:58:37;;;;;;;;;;;;;;;17.88;41.61;101738.69;5072009;28;19977;-77
2022/06/12 11:01:18;;;;;;;;;;;;;;;17.93;41.59;101744.63;5062411;28;19959;-77
2022/06/12 11:04:02;;;;;;;;;;;;;;;17.82;41.58;101735.41;5073467;28;19935;-77
2022/06/12 11:06:32;;;;;;;;;;;;;;;17.90;40.80;101735.97;5074287;28;19916;-77
2022/06/12 11:09:13;;;;;;;;;;;;;;;17.84;41.15;101730.94;5072589;28;19923;-77
2022/06/12 11:11:53;;;;;;;;;;;;;;;17.89;41.68;101737.75;5070041;28;20010;-77
2022/06/12 11:14:34;;;;;;;;;;;;;;;17.93;41.26;101727.97;5085078;28;19928;-79
2022/06/12 11:17:02;;;;;;;;;;;;;;;17.86;40.59;101721.22;5065570;28;19925;-79
2022/06/12 11:19:43;;;;;;;;;;;;;;;17.90;40.06;101726.31;5067334;28;19925;-79
2022/06/12 11:22:27;;;;;;;;;;;;;;;18.00;40.52;101732.13;5068647;28;19917;-82
2022/06/12 11:25:08;;;;;;;;;;;;;;;18.00;40.11;101737.38;5068233;28;19945;-82
2022/06/12 11:27:49;;;;;;;;;;;;;;;18.03;40.18;101729.38;5060038;28;19959;-82
2022/06/12 11:30:33;;;;;;;;;;;;;;;18.11;38.13;101733.44;5055864;28;20535;-82
2022/06/12 11:33:05;;;;;;;;;;;;;;;18.10;39.08;101736.97;5065932;28;19912;-82
2022/06/12 11:35:46;;;;;;;;;;;;;;;18.10;39.66;101730.84;5065884;28;19924;-82
2022/06/12 11:38:29;;;;;;;;;;;;;;;18.01;38.96;101728.53;5067826;28;19954;-82
2022/06/12 11:41:10;;;;;;;;;;;;;;;18.14;38.12;101717.53;5072468;28;20371;-82
2022/06/12 11:43:35;;;;;;;;;;;;;;;18.10;38.33;101723.81;5068302;28;20421;-82
2022/06/12 11:46:19;;;;;;;;;;;;;;;18.18;39.16;101720.06;5072808;28;19920;-82
2022/06/12 11:48:54;;;;;;;;;;;;;;;18.06;38.93;101719.59;5060126;28;19924;-79
2022/06/12 11:51:38;;;;;;;;;;;;;;;18.22;39.28;101711.97;5070939;28;19920;-79
2022/06/12 11:54:04;;;;;;;;;;;;;;;18.27;38.38;101707.44;5065350;28;20383;-79
2022/06/12 11:56:48;;;;;;;;;;;;;;;18.22;39.78;101704.09;5067722;28;20539;-79
2022/06/12 11:59:13;;;;;;;;;;;;;;;18.18;39.55;101694.63;5064994;28;19920;-79
2022/06/12 12:01:57;;;;;;;;;;;;;;;18.14;39.73;101699.13;5068569;28;20090;-79
2022/06/12 12:04:25;;;;;;;;;;;;;;;18.25;40.04;101697.84;5065576;28;20359;-78
2022/06/12 12:07:09;;;;;;;;;;;;;;;18.29;37.06;101689.81;5071410;28;20023;-78
2022/06/12 12:09:53;;;;;;;;;;;;;;;18.20;37.65;101678.75;5062749;28;19995;-82
2022/06/12 12:12:23;;;;;;;;;;;;;;;18.28;37.71;101679.31;5055920;28;19916;-81
2022/06/12 12:14:50;;;;;;;;;;;;;;;18.39;38.94;101678.00;5078330;28;19924;-81
2022/06/12 12:17:15;;;;;;;;;;;;;;;18.28;39.89;101669.66;5092443;28;20652;-82
2022/06/12 12:19:44;;;;;;;;;;;;;;;18.33;40.24;101669.50;5081182;28;19927;-82
2022/06/12 12:22:22;;;;;;;;;;;;;;;18.23;41.10;101665.50;5078636;28;19924;-78
2022/06/12 12:24:49;;;;;;;;;;;;;;;18.35;38.31;101662.41;5076091;28;19920;-81
2022/06/12 12:27:24;;;;;;;;;;;;;;;18.51;39.95;101674.91;5060386;28;20029;-82
2022/06/12 12:29:50;;;;;;;;;;;;;;;18.41;39.68;101665.66;5067389;28;19917;-79
2022/06/12 12:32:16;;;;;;;;;;;;;;;18.55;38.43;101666.00;5055259;28;20402;-79
2022/06/12 12:34:42;;;;;;;;;;;;;;;18.49;38.94;101665.38;5085502;28;19928;-78
2022/06/12 12:42:42;;;;;;;;;;;;;;;18.53;39.50;101675.72;5075580;28;19928;-78
2022/06/12 12:45:23;;;;;;;;;;;;;;;18.73;39.36;101659.13;5065898;28;19921;-78
2022/06/12 12:48:00;;;;;;;;;;;;;;;18.74;40.82;101663.50;5068498;28;19920;-78
2022/06/12 12:50:26;;;;;;;;;;;;;;;18.70;40.03;101670.66;5069770;28;20433;-78
2022/06/12 12:52:57;;;;;;;;;;;;;;;18.64;39.14;101659.50;5065146;28;19921;-78
2022/06/12 12:55:28;;;;;;;;;;;;;;;18.55;39.14;101660.72;5067548;28;19936;-82
2022/06/12 12:57:54;;;;;;;;;;;;;;;18.57;40.63;101652.78;5068528;28;19924;-77
2022/06/12 13:00:22;;;;;;;;;;;;;;;18.77;42.71;101659.88;5067645;28;19974;-79
2022/06/12 13:02:59;;;;;;;;;;;;;;;18.70;42.81;101668.00;5058151;28;19925;-81
2022/06/12 13:05:45;;;;;;;;;;;;;;;18.67;43.17;101659.38;5069735;28;19912;-82
2022/06/12 13:08:29;;;;;;;;;;;;;;;18.80;42.49;101654.47;5072672;28;20302;-82